CSCL Fuzhou — ELYA7 — position and weather

sailwx.info

Track history (hours):
 
Tides and Currents Weather Stations Pressure Air Temp Water Temp Dewpoint Dewpoint Depression Visibility Wind Speed Wind Dir Waves Ship Positions

CSCL Fuzhou

Last reported at 2016-Sep-23 15:10 UTC. Time now 2016-Sep-26 00:21 UTC.
Position N 34°57' E 139°26'.

Length 207.4 m; beam 29.8 m; draft 11.4 m.

Type: Ship (hazmat cat A). MMSI: 636016483.

Date/timePositionNaut miles runAvg speedWind from/ knotsBaromVisibWave heightAir tempDewpointWater temp
2016-Sep-23 15:10N 34°57' E 139°26'2515.5
2016-Sep-23 13:33N 35°15' E 139°46'12 3.0
2016-Sep-23 09:33N 35°26' E 139°41'0 0.0
2016-Sep-23 06:33N 35°26' E 139°41'0 0.0
2016-Sep-23 04:33N 35°26' E 139°41'0 0.0
2016-Sep-23 03:33N 35°26' E 139°41'0 0.0
2016-Sep-23 02:33N 35°26' E 139°41'0 0.0
2016-Sep-23 01:33N 35°26' E 139°41'0 0.0
2016-Sep-23 00:33N 35°26' E 139°41'0 0.0
2016-Sep-22 23:33N 35°26' E 139°41'2 0.8
2016-Sep-22 20:31N 35°26' E 139°44'11 1.3
2016-Sep-22 12:31N 35°37' E 139°47'0 0.0
2016-Sep-22 04:31N 35°37' E 139°47'0 0.0
2016-Sep-22 03:31N 35°37' E 139°47'0 0.0
2016-Sep-22 00:31N 35°37' E 139°47'0 0.0
2016-Sep-21 23:31N 35°37' E 139°47'2 1.8
2016-Sep-21 22:33N 35°35' E 139°47'28 9.5
2016-Sep-21 19:33N 35°07' E 139°46'  
2016-Sep-17 12:33N 22°42' E 120°08'11 0.6
2016-Sep-16 17:33N 22°31' E 120°05'1 0.3
2016-Sep-16 15:33N 22°31' E 120°04'1 0.2
2016-Sep-16 12:33N 22°30' E 120°05'2 0.7
2016-Sep-16 09:33N 22°32' E 120°05'15 7.7
2016-Sep-16 07:33N 22°30' E 119°49'31711.1
2016-Sep-15 03:03N 22°17' E 114°06'3 1.7
2016-Sep-15 01:25N 22°20' E 114°08'0 0.0
2016-Sep-14 22:31N 22°20' E 114°08'0 0.0
2016-Sep-14 17:25N 22°20' E 114°08'0 0.0
2016-Sep-14 16:31N 22°20' E 114°08'  
Track history (hours):
 
Tides and Currents Weather Stations Pressure Air Temp Water Temp Dewpoint Dewpoint Depression Visibility Wind Speed Wind Dir Waves Ship Positions

CSCL Fuzhou

Last reported at 2016-Sep-23 15:10 UTC. Time now 2016-Sep-26 00:21 UTC.
Position N 34°57' E 139°26'.

Length 207.4 m; beam 29.8 m; draft 11.4 m.

Type: Ship (hazmat cat A). MMSI: 636016483.

Date/timePositionNaut miles runAvg speedWind from/ knotsBaromVisibWave heightAir tempDewpointWater temp
2016-Sep-23 15:10N 34°57' E 139°26'2515.5
2016-Sep-23 13:33N 35°15' E 139°46'12 3.0
2016-Sep-23 09:33N 35°26' E 139°41'0 0.0
2016-Sep-23 06:33N 35°26' E 139°41'0 0.0
2016-Sep-23 04:33N 35°26' E 139°41'0 0.0
2016-Sep-23 03:33N 35°26' E 139°41'0 0.0
2016-Sep-23 02:33N 35°26' E 139°41'0 0.0
2016-Sep-23 01:33N 35°26' E 139°41'0 0.0
2016-Sep-23 00:33N 35°26' E 139°41'0 0.0
2016-Sep-22 23:33N 35°26' E 139°41'2 0.8
2016-Sep-22 20:31N 35°26' E 139°44'11 1.3
2016-Sep-22 12:31N 35°37' E 139°47'0 0.0
2016-Sep-22 04:31N 35°37' E 139°47'0 0.0
2016-Sep-22 03:31N 35°37' E 139°47'0 0.0
2016-Sep-22 00:31N 35°37' E 139°47'0 0.0
2016-Sep-21 23:31N 35°37' E 139°47'2 1.8
2016-Sep-21 22:33N 35°35' E 139°47'28 9.5
2016-Sep-21 19:33N 35°07' E 139°46'  
2016-Sep-17 12:33N 22°42' E 120°08'11 0.6
2016-Sep-16 17:33N 22°31' E 120°05'1 0.3
2016-Sep-16 15:33N 22°31' E 120°04'1 0.2
2016-Sep-16 12:33N 22°30' E 120°05'2 0.7
2016-Sep-16 09:33N 22°32' E 120°05'15 7.7
2016-Sep-16 07:33N 22°30' E 119°49'31711.1
2016-Sep-15 03:03N 22°17' E 114°06'3 1.7
2016-Sep-15 01:25N 22°20' E 114°08'0 0.0
2016-Sep-14 22:31N 22°20' E 114°08'0 0.0
2016-Sep-14 17:25N 22°20' E 114°08'0 0.0
2016-Sep-14 16:31N 22°20' E 114°08'  

Dump ship's entire track history